Time;durP1;ratioP1;P1;durP2;ratioP2;P2;SDS_P1;SDS_P2;PMS_P1;PMS_P2;Temp;Humidity;BMP_temperature;BMP_pressure;BME280_temperature;BME280_humidity;BME280_pressure;Samples;Min_cycle;Max_cycle;Signal;HPM_P1;HPM_P2
2021/12/04 00:00:53;;;;;;;4.70;4.30;;;;;;;;;;5033794;28;20226;-62
2021/12/04 00:03:21;;;;;;;5.35;4.32;;;;;;;;;;5033628;28;20202;-62
2021/12/04 00:05:53;;;;;;;5.63;4.50;;;;;;;;;;5033634;28;20206;-62
2021/12/04 00:08:21;;;;;;;5.25;4.75;;;;;;;;;;5034027;28;20225;-62
2021/12/04 00:10:49;;;;;;;6.72;5.20;;;;;;;;;;5033230;28;20218;-62
2021/12/04 00:13:16;;;;;;;6.35;5.75;;;;;;;;;;5033146;28;20685;-62
2021/12/04 00:15:43;;;;;;;6.65;5.57;;;;;;;;;;5033298;28;20209;-62
2021/12/04 00:18:11;;;;;;;5.05;4.55;;;;;;;;;;5033637;28;20198;-62
2021/12/04 00:20:41;;;;;;;5.65;4.75;;;;;;;;;;5037737;28;20812;-62
2021/12/04 00:23:09;;;;;;;8.13;5.40;;;;;;;;;;5035137;28;20296;-62
2021/12/04 00:25:37;;;;;;;6.53;5.55;;;;;;;;;;5033877;28;20206;-62
2021/12/04 00:28:05;;;;;;;6.00;4.57;;;;;;;;;;5033153;28;20222;-62
2021/12/04 00:30:32;;;;;;;5.45;4.93;;;;;;;;;;5033064;28;20237;-62
2021/12/04 00:33:02;;;;;;;6.07;5.40;;;;;;;;;;5033365;28;20205;-62
2021/12/04 00:35:43;;;;;;;7.70;5.60;;;;;;;;;;5033198;28;20252;-63
2021/12/04 00:49:26;;;;;;;6.20;5.70;;;;;;;;;;5041661;28;20216;-62
2021/12/04 00:51:55;;;;;;;6.05;5.40;;;;;;;;;;5038262;28;20230;-62
2021/12/04 00:54:24;;;;;;;5.93;5.32;;;;;;;;;;5041151;28;20213;-62
2021/12/04 00:56:52;;;;;;;6.20;5.60;;;;;;;;;;5039171;28;20202;-62
2021/12/04 00:59:20;;;;;;;7.05;6.00;;;;;;;;;;5037508;28;20222;-61
2021/12/04 01:01:47;;;;;;;7.65;6.60;;;;;;;;;;5036718;28;20230;-62
2021/12/04 01:04:15;;;;;;;8.80;6.78;;;;;;;;;;5036007;28;20203;-61
2021/12/04 01:06:43;;;;;;;6.82;6.13;;;;;;;;;;5034877;28;20206;-63
2021/12/04 01:09:11;;;;;;;9.73;7.03;;;;;;;;;;5034112;28;20229;-63
2021/12/04 01:11:40;;;;;;;6.65;5.97;;;;;;;;;;5033330;28;20226;-62
2021/12/04 01:14:08;;;;;;;9.10;7.88;;;;;;;;;;5034770;28;20198;-62
2021/12/04 01:16:35;;;;;;;12.10;6.95;;;;;;;;;;5036922;28;20606;-61
2021/12/04 01:19:02;;;;;;;7.03;6.32;;;;;;;;;;5037012;28;20209;-62
2021/12/04 01:21:30;;;;;;;7.97;7.18;;;;;;;;;;5036447;28;20710;-61
2021/12/04 01:23:57;;;;;;;8.35;7.45;;;;;;;;;;5036669;28;20206;-62
2021/12/04 01:26:25;;;;;;;7.75;6.95;;;;;;;;;;5036466;28;20682;-62
2021/12/04 01:28:53;;;;;;;9.30;7.43;;;;;;;;;;5036591;28;20313;-63
2021/12/04 01:31:21;;;;;;;8.90;6.90;;;;;;;;;;5036111;28;20234;-62
2021/12/04 01:33:48;;;;;;;8.70;7.50;;;;;;;;;;5036435;28;20697;-62
2021/12/04 01:36:15;;;;;;;8.10;6.55;;;;;;;;;;5036636;28;20596;-62
2021/12/04 01:38:43;;;;;;;8.18;7.30;;;;;;;;;;5036187;28;20693;-62
2021/12/04 01:41:11;;;;;;;8.10;6.55;;;;;;;;;;5036423;28;20230;-62
2021/12/04 01:43:38;;;;;;;9.50;7.05;;;;;;;;;;5036573;28;20216;-63
2021/12/04 01:46:07;;;;;;;7.80;6.60;;;;;;;;;;5036042;28;20213;-62
2021/12/04 01:48:34;;;;;;;8.65;6.93;;;;;;;;;;5036118;28;20635;-62
2021/12/04 01:51:01;;;;;;;7.45;6.68;;;;;;;;;;5035895;28;20726;-62
2021/12/04 01:53:29;;;;;;;9.40;7.35;;;;;;;;;;5036652;28;20228;-62
2021/12/04 01:55:57;;;;;;;8.10;6.70;;;;;;;;;;5036011;28;20587;-62
2021/12/04 01:58:25;;;;;;;8.50;7.70;;;;;;;;;;5035829;28;20573;-62
2021/12/04 02:00:52;;;;;;;8.75;7.15;;;;;;;;;;5035695;28;20219;-62
2021/12/04 02:03:22;;;;;;;9.23;7.55;;;;;;;;;;5035993;28;20214;-61
2021/12/04 02:05:50;;;;;;;8.65;6.88;;;;;;;;;;5035814;28;20209;-63
2021/12/04 02:08:18;;;;;;;8.15;7.32;;;;;;;;;;5035685;28;20702;-61
2021/12/04 02:10:46;;;;;;;8.00;7.13;;;;;;;;;;5035592;28;20265;-63
2021/12/04 02:13:15;;;;;;;8.32;6.82;;;;;;;;;;5035596;28;20229;-61
2021/12/04 02:15:42;;;;;;;8.55;6.78;;;;;;;;;;5035564;28;20257;-62
2021/12/04 02:18:10;;;;;;;7.70;7.00;;;;;;;;;;5035602;28;20203;-62
2021/12/04 02:20:38;;;;;;;8.25;6.95;;;;;;;;;;5035275;28;20222;-62
2021/12/04 02:23:07;;;;;;;8.00;6.72;;;;;;;;;;5035477;28;20202;-62
2021/12/04 02:25:35;;;;;;;6.93;6.22;;;;;;;;;;5035840;28;20202;-63
2021/12/04 02:28:02;;;;;;;8.43;7.05;;;;;;;;;;5038009;28;20202;-63
2021/12/04 02:30:32;;;;;;;6.47;5.88;;;;;;;;;;5036465;28;20238;-62
2021/12/04 02:32:59;;;;;;;6.82;6.22;;;;;;;;;;5041065;28;20210;-62
2021/12/04 02:35:27;;;;;;;7.60;6.05;;;;;;;;;;5038169;28;20220;-62
2021/12/04 02:37:56;;;;;;;7.00;6.40;;;;;;;;;;5035973;28;20210;-63
2021/12/04 02:40:24;;;;;;;6.75;6.18;;;;;;;;;;5035433;28;20218;-61
2021/12/04 02:42:52;;;;;;;8.43;6.03;;;;;;;;;;5035455;28;20210;-62
2021/12/04 02:45:19;;;;;;;8.50;6.90;;;;;;;;;;5038309;28;20206;-61
2021/12/04 02:47:46;;;;;;;7.68;6.55;;;;;;;;;;5037471;28;20202;-62
2021/12/04 02:50:17;;;;;;;7.15;6.40;;;;;;;;;;5037521;28;20728;-61
2021/12/04 02:52:45;;;;;;;8.18;7.32;;;;;;;;;;5038822;28;20593;-61
2021/12/04 02:55:13;;;;;;;7.30;6.60;;;;;;;;;;5042186;28;20210;-61
2021/12/04 02:57:43;;;;;;;8.80;7.03;;;;;;;;;;5035116;28;20209;-62
2021/12/04 03:00:12;;;;;;;8.00;7.18;;;;;;;;;;5034738;28;20221;-62
2021/12/04 03:02:39;;;;;;;7.93;7.03;;;;;;;;;;5034652;28;20260;-63
2021/12/04 03:05:09;;;;;;;7.72;6.93;;;;;;;;;;5034728;28;20620;-62
2021/12/04 03:07:36;;;;;;;8.77;7.95;;;;;;;;;;5034688;28;20203;-61
2021/12/04 03:10:06;;;;;;;8.48;7.53;;;;;;;;;;5034265;28;20579;-62
2021/12/04 03:12:35;;;;;;;7.57;6.78;;;;;;;;;;5034651;28;20237;-62
2021/12/04 03:15:02;;;;;;;7.53;6.65;;;;;;;;;;5034910;28;20206;-62
2021/12/04 03:17:30;;;;;;;7.20;6.43;;;;;;;;;;5034094;28;20700;-61
2021/12/04 03:19:57;;;;;;;8.80;6.80;;;;;;;;;;5034567;28;20572;-62
2021/12/04 03:22:24;;;;;;;8.50;7.60;;;;;;;;;;5034551;28;20214;-62
2021/12/04 03:24:52;;;;;;;8.30;7.50;;;;;;;;;;5034418;28;20198;-62
2021/12/04 03:27:20;;;;;;;7.82;7.03;;;;;;;;;;5034204;28;20682;-62
2021/12/04 03:29:55;;;;;;;9.15;8.05;;;;;;;;;;5034077;28;20583;-62
2021/12/04 03:32:48;;;;;;;6.70;6.10;;;;;;;;;;5034116;28;20193;-61
2021/12/04 03:40:01;;;;;;;9.63;7.30;;;;;;;;;;5033946;28;20237;-62
2021/12/04 03:41:02;;;;;;;6.57;5.93;;;;;;;;;;5033876;28;20237;-63
2021/12/04 03:43:30;;;;;;;6.97;5.93;;;;;;;;;;5034127;28;20278;-62
2021/12/04 03:46:01;;;;;;;6.20;5.57;;;;;;;;;;5034016;28;20206;-62
2021/12/04 03:48:49;;;;;;;9.32;7.25;;;;;;;;;;5033947;28;20285;-65
2021/12/04 03:51:17;;;;;;;7.60;6.82;;;;;;;;;;5034219;28;20229;-61
2021/12/04 03:53:44;;;;;;;6.13;5.55;;;;;;;;;;5033968;28;20268;-61
2021/12/04 03:56:13;;;;;;;6.93;6.25;;;;;;;;;;5034037;28;20202;-62
2021/12/04 03:58:40;;;;;;;7.47;6.20;;;;;;;;;;5033810;28;20198;-62
2021/12/04 04:01:09;;;;;;;6.57;5.97;;;;;;;;;;5033931;28;20230;-62
2021/12/04 04:03:36;;;;;;;6.90;6.20;;;;;;;;;;5034072;28;20206;-61
2021/12/04 04:08:58;;;;;;;6.85;6.00;;;;;;;;;;5153362;27;20563;-61
2021/12/04 04:11:25;;;;;;;7.63;6.93;;;;;;;;;;5168776;27;20727;-62
2021/12/04 04:13:53;;;;;;;6.57;5.95;;;;;;;;;;5174896;27;20205;-62
2021/12/04 04:16:20;;;;;;;8.13;6.30;;;;;;;;;;5175240;27;20197;-62
2021/12/04 04:18:47;;;;;;;7.90;6.22;;;;;;;;;;5173374;27;20571;-62
2021/12/04 04:21:15;;;;;;;7.47;6.60;;;;;;;;;;5173457;27;20228;-62
2021/12/04 04:23:42;;;;;;;7.70;6.15;;;;;;;;;;5160797;22;20223;-56
2021/12/04 04:26:11;;;;;;;8.45;6.93;;;;;;;;;;5131420;28;20226;-55
2021/12/04 04:28:38;;;;;;;7.65;6.35;;;;;;;;;;5130925;28;20221;-55
2021/12/04 04:31:08;;;;;;;6.47;5.88;;;;;;;;;;5131353;28;20207;-55
2021/12/04 04:33:40;;;;;;;7.43;6.55;;;;;;;;;;5131185;28;20657;-55
2021/12/04 04:36:17;;;;;;;7.32;6.55;;;;;;;;;;5131226;28;20184;-55
2021/12/04 04:38:52;;;;;;;6.78;6.18;;;;;;;;;;5131238;28;20207;-55
2021/12/04 04:58:11;;;;;;;7.75;6.72;;;;;;;;;;5131113;28;20186;-56
2021/12/04 05:00:55;;;;;;;7.38;6.05;;;;;;;;;;5130562;28;20190;-55
2021/12/04 05:11:39;;;;;;;6.75;6.15;;;;;;;;;;5130850;28;20227;-55
2021/12/04 05:14:09;;;;;;;6.18;5.57;;;;;;;;;;5130645;28;20237;-55
2021/12/04 05:16:50;;;;;;;6.53;5.88;;;;;;;;;;5130646;28;20282;-55
2021/12/04 05:19:29;;;;;;;7.15;6.45;;;;;;;;;;5122479;28;20188;-55
2021/12/04 05:21:56;;;;;;;8.27;6.53;;;;;;;;;;5116631;28;20525;-55
2021/12/04 05:24:24;;;;;;;6.60;6.00;;;;;;;;;;5116662;28;20188;-55
2021/12/04 05:26:51;;;;;;;6.90;6.20;;;;;;;;;;5116515;28;20214;-55
2021/12/04 05:29:20;;;;;;;7.45;6.75;;;;;;;;;;5116616;28;20203;-55
2021/12/04 05:31:47;;;;;;;7.18;6.25;;;;;;;;;;5116624;28;20204;-55
2021/12/04 05:34:14;;;;;;;5.80;5.30;;;;;;;;;;5116074;28;20565;-55
2021/12/04 05:36:42;;;;;;;6.45;5.85;;;;;;;;;;5116139;28;20697;-55
2021/12/04 05:39:09;;;;;;;6.70;6.10;;;;;;;;;;5116380;28;20200;-55
2021/12/04 05:41:37;;;;;;;5.97;5.30;;;;;;;;;;5116028;28;20207;-56
2021/12/04 05:44:06;;;;;;;8.73;5.55;;;;;;;;;;5115846;28;20227;-55
2021/12/04 05:46:38;;;;;;;6.15;5.55;;;;;;;;;;5116103;28;20237;-55
2021/12/04 05:49:11;;;;;;;6.85;6.22;;;;;;;;;;5115778;28;20667;-56
2021/12/04 05:52:02;;;;;;;6.85;6.32;;;;;;;;;;5115788;28;20180;-55
2021/12/04 05:54:33;;;;;;;7.07;6.38;;;;;;;;;;5116217;28;20195;-55
2021/12/04 05:57:01;;;;;;;6.85;6.25;;;;;;;;;;5116045;28;20187;-55
2021/12/04 05:59:28;;;;;;;7.70;6.32;;;;;;;;;;5115654;28;20207;-55
2021/12/04 06:01:57;;;;;;;7.40;6.40;;;;;;;;;;5115501;28;20211;-55
2021/12/04 06:04:25;;;;;;;8.13;7.25;;;;;;;;;;5115550;28;20737;-55
2021/12/04 06:06:52;;;;;;;8.27;7.50;;;;;;;;;;5115657;28;20225;-55
2021/12/04 06:09:20;;;;;;;9.00;6.93;;;;;;;;;;5115859;28;20590;-55
2021/12/04 06:11:47;;;;;;;7.22;6.45;;;;;;;;;;5115524;28;20195;-55
2021/12/04 06:14:15;;;;;;;8.10;7.40;;;;;;;;;;5115435;28;20210;-55
2021/12/04 06:16:42;;;;;;;7.85;6.50;;;;;;;;;;5115806;28;20231;-55
2021/12/04 06:19:13;;;;;;;7.43;6.72;;;;;;;;;;5116184;28;20239;-55
2021/12/04 06:24:26;;;;;;;7.63;6.63;;;;;;;;;;5116226;28;20296;-55
2021/12/04 06:26:53;;;;;;;7.03;6.32;;;;;;;;;;5115532;28;20291;-55
2021/12/04 06:29:21;;;;;;;9.07;6.97;;;;;;;;;;5115125;28;20733;-54
2021/12/04 06:31:49;;;;;;;7.53;6.85;;;;;;;;;;5114370;28;20229;-55
2021/12/04 06:34:18;;;;;;;7.68;7.03;;;;;;;;;;5115291;28;20203;-55
2021/12/04 06:36:45;;;;;;;6.18;5.57;;;;;;;;;;5114922;28;20599;-55
2021/12/04 06:39:12;;;;;;;7.97;7.15;;;;;;;;;;5115058;28;20203;-55
2021/12/04 06:41:41;;;;;;;7.20;6.50;;;;;;;;;;5115187;28;20203;-55
2021/12/04 06:44:08;;;;;;;7.20;6.60;;;;;;;;;;5114841;28;20195;-55
2021/12/04 06:46:35;;;;;;;7.63;6.85;;;;;;;;;;5115002;28;20211;-56
2021/12/04 06:49:08;;;;;;;7.30;6.53;;;;;;;;;;5114873;28;20629;-55
2021/12/04 06:51:40;;;;;;;8.13;7.20;;;;;;;;;;5115041;28;20195;-55
2021/12/04 06:54:11;;;;;;;8.68;6.40;;;;;;;;;;5114645;28;20574;-55
2021/12/04 06:56:41;;;;;;;7.13;6.43;;;;;;;;;;5114608;28;20184;-55
2021/12/04 06:59:11;;;;;;;6.97;6.28;;;;;;;;;;5116064;28;20195;-56
2021/12/04 07:01:40;;;;;;;6.80;6.10;;;;;;;;;;5114853;28;20204;-56
2021/12/04 07:04:07;;;;;;;7.07;6.45;;;;;;;;;;5114513;28;20693;-55
2021/12/04 07:06:35;;;;;;;7.65;6.88;;;;;;;;;;5114538;28;20687;-54
2021/12/04 07:09:04;;;;;;;9.27;7.22;;;;;;;;;;5114312;28;20220;-56
2021/12/04 07:11:31;;;;;;;7.05;6.45;;;;;;;;;;5114610;28;20207;-55
2021/12/04 07:13:59;;;;;;;7.47;6.70;;;;;;;;;;5114503;28;20224;-55
2021/12/04 07:16:26;;;;;;;7.40;6.70;;;;;;;;;;5114475;28;20200;-56
2021/12/04 07:18:54;;;;;;;7.03;6.32;;;;;;;;;;5114077;28;20745;-56
2021/12/04 07:21:22;;;;;;;8.70;7.90;;;;;;;;;;5113992;28;20199;-55
2021/12/04 07:23:49;;;;;;;8.50;7.15;;;;;;;;;;5114145;28;20250;-55
2021/12/04 07:26:19;;;;;;;7.22;6.63;;;;;;;;;;5114277;28;20196;-55
2021/12/04 07:28:46;;;;;;;9.20;6.80;;;;;;;;;;5114072;28;20219;-53
2021/12/04 07:31:13;;;;;;;7.25;6.55;;;;;;;;;;5113999;28;20196;-55
2021/12/04 07:33:41;;;;;;;8.15;7.35;;;;;;;;;;5114121;28;20220;-55
2021/12/04 07:36:08;;;;;;;9.05;8.23;;;;;;;;;;5114191;28;20590;-55
2021/12/04 07:38:36;;;;;;;8.65;7.80;;;;;;;;;;5113917;28;20195;-55
2021/12/04 07:41:03;;;;;;;8.85;7.95;;;;;;;;;;5113782;28;20212;-55
2021/12/04 07:43:32;;;;;;;7.60;6.90;;;;;;;;;;5113538;28;20224;-55
2021/12/04 07:46:00;;;;;;;9.60;7.35;;;;;;;;;;5113827;28;20199;-56
2021/12/04 07:48:27;;;;;;;8.25;7.43;;;;;;;;;;5113777;28;20242;-56
2021/12/04 07:50:55;;;;;;;7.95;7.18;;;;;;;;;;5114611;28;20214;-56
2021/12/04 07:53:22;;;;;;;8.43;7.43;;;;;;;;;;5113568;28;20310;-56
2021/12/04 07:55:49;;;;;;;8.02;7.32;;;;;;;;;;5113413;28;20199;-55
2021/12/04 07:58:17;;;;;;;8.10;7.30;;;;;;;;;;5113397;28;20199;-56
2021/12/04 08:00:45;;;;;;;9.02;8.23;;;;;;;;;;5113621;28;20206;-56
2021/12/04 08:03:13;;;;;;;10.02;8.90;;;;;;;;;;5113283;28;20223;-56
2021/12/04 08:05:40;;;;;;;10.05;8.93;;;;;;;;;;5113471;28;20204;-56
2021/12/04 08:08:07;;;;;;;10.30;9.30;;;;;;;;;;5113226;28;20562;-56
2021/12/04 08:10:35;;;;;;;9.43;8.20;;;;;;;;;;5113684;28;20203;-56
2021/12/04 08:13:03;;;;;;;7.90;7.10;;;;;;;;;;5113599;28;20223;-57
2021/12/04 08:15:31;;;;;;;9.55;8.68;;;;;;;;;;5113244;28;20328;-55
2021/12/04 08:18:00;;;;;;;11.75;10.00;;;;;;;;;;5113686;28;20219;-56
2021/12/04 08:20:27;;;;;;;9.68;8.77;;;;;;;;;;5113051;28;20566;-56
2021/12/04 08:22:54;;;;;;;11.05;9.05;;;;;;;;;;5113225;28;20234;-55
2021/12/04 08:25:22;;;;;;;11.45;9.77;;;;;;;;;;5113229;28;20199;-55
2021/12/04 08:27:50;;;;;;;11.15;9.82;;;;;;;;;;5113013;28;20207;-56
2021/12/04 08:30:19;;;;;;;11.43;8.88;;;;;;;;;;5113339;28;20239;-57
2021/12/04 08:32:46;;;;;;;9.95;8.95;;;;;;;;;;5113167;28;20249;-56
2021/12/04 08:35:18;;;;;;;10.75;9.45;;;;;;;;;;5113109;28;20210;-57
2021/12/04 08:37:45;;;;;;;11.40;10.25;;;;;;;;;;5113176;28;20188;-57
2021/12/04 08:40:14;;;;;;;9.68;8.77;;;;;;;;;;5113398;28;20524;-56
2021/12/04 08:42:42;;;;;;;13.85;11.65;;;;;;;;;;5113041;28;20682;-55
2021/12/04 08:45:11;;;;;;;10.75;9.65;;;;;;;;;;5113081;28;20694;-56
2021/12/04 08:47:38;;;;;;;12.30;9.82;;;;;;;;;;5113473;28;20204;-58
2021/12/04 08:50:06;;;;;;;10.50;9.40;;;;;;;;;;5113324;28;20632;-56
2021/12/04 08:52:35;;;;;;;10.38;9.27;;;;;;;;;;5114015;28;20227;-56
2021/12/04 08:55:02;;;;;;;12.13;10.82;;;;;;;;;;5116531;28;20210;-57
2021/12/04 08:57:30;;;;;;;13.57;11.55;;;;;;;;;;5116897;28;20671;-56
2021/12/04 08:59:57;;;;;;;12.57;11.27;;;;;;;;;;5116818;28;20226;-56
2021/12/04 09:02:24;;;;;;;12.57;10.43;;;;;;;;;;5116759;28;20695;-56
2021/12/04 09:04:54;;;;;;;10.88;9.85;;;;;;;;;;5117122;28;20200;-56
2021/12/04 09:07:21;;;;;;;10.07;9.07;;;;;;;;;;5117209;28;20200;-55
2021/12/04 09:09:54;;;;;;;9.90;9.00;;;;;;;;;;5116524;28;20699;-56
2021/12/04 09:12:22;;;;;;;12.57;9.20;;;;;;;;;;5116431;28;20308;-56
2021/12/04 09:14:50;;;;;;;9.70;8.90;;;;;;;;;;5116944;28;20229;-55
2021/12/04 09:17:18;;;;;;;10.07;9.02;;;;;;;;;;5117070;28;20228;-57
2021/12/04 09:19:46;;;;;;;10.25;9.35;;;;;;;;;;5116331;28;20201;-56
2021/12/04 09:22:16;;;;;;;10.10;8.88;;;;;;;;;;5116177;28;20714;-56
2021/12/04 09:24:46;;;;;;;10.02;9.00;;;;;;;;;;5116506;28;20190;-56
2021/12/04 09:27:20;;;;;;;10.95;9.60;;;;;;;;;;5116499;28;20640;-56
2021/12/04 09:30:09;;;;;;;9.70;8.70;;;;;;;;;;5116357;28;20279;-57
2021/12/04 09:33:08;;;;;;;9.65;8.65;;;;;;;;;;5116947;28;20235;-57
2021/12/04 10:00:43;;;;;;;8.60;7.80;;;;;;;;;;5115874;28;20195;-56
2021/12/04 10:03:34;;;;;;;10.82;9.20;;;;;;;;;;5115628;28;20593;-57
2021/12/04 10:15:19;;;;;;;7.93;7.05;;;;;;;;;;5099747;28;20719;-56
2021/12/04 10:20:46;;;;;;;8.50;7.30;;;;;;;;;;5115314;28;20552;-56
2021/12/04 10:34:15;;;;;;;9.38;8.32;;;;;;;;;;5115313;28;20256;-55
2021/12/04 10:36:43;;;;;;;8.05;7.35;;;;;;;;;;5115349;28;20204;-56
2021/12/04 10:39:12;;;;;;;7.97;7.25;;;;;;;;;;5115495;28;20211;-56
2021/12/04 10:41:41;;;;;;;8.25;6.85;;;;;;;;;;5115162;28;20287;-55
2021/12/04 10:44:17;;;;;;;6.70;6.10;;;;;;;;;;5114976;28;20652;-56
2021/12/04 10:46:54;;;;;;;7.45;6.32;;;;;;;;;;5114950;28;20206;-55
2021/12/04 10:49:45;;;;;;;7.97;7.15;;;;;;;;;;5114417;28;20246;-55
2021/12/04 10:52:21;;;;;;;8.35;7.57;;;;;;;;;;5114920;28;20182;-56
2021/12/04 10:54:52;;;;;;;7.68;6.97;;;;;;;;;;5114837;28;20223;-55
2021/12/04 11:00:23;;;;;;;7.63;6.97;;;7.40;95.70;;;;;;5032018;28;20261;-55
2021/12/04 11:02:54;;;;;;;7.22;6.07;;;7.40;95.70;;;;;;5031635;28;20191;-55
2021/12/04 11:05:45;;;;;;;6.20;5.60;;;7.30;95.50;;;;;;5072687;28;20232;-54
2021/12/04 11:19:52;;;;;;;8.35;7.55;;;7.10;95.40;;;;;;5088903;28;20194;-57
2021/12/04 11:22:27;;;;;;;8.13;7.32;;;7.20;95.20;;;;;;5113948;28;20710;-58
2021/12/04 11:25:29;;;;;;;8.75;7.85;;;7.20;95.00;;;;;;5113509;28;20269;-57
2021/12/04 11:28:19;;;;;;;8.70;7.82;;;7.30;94.90;;;;;;5114139;28;20555;-59
2021/12/04 11:36:37;;;;;;;9.27;8.23;;;7.30;94.50;;;;;;5114148;28;20229;-57
2021/12/04 11:42:03;;;;;;;9.63;8.73;;;7.30;94.40;;;;;;5113488;28;20662;-56
2021/12/04 11:44:43;;;;;;;7.15;6.53;;;7.20;94.40;;;;;;5113601;28;20216;-56
2021/12/04 11:47:11;;;;;;;6.50;6.00;;;7.20;94.40;;;;;;5113417;28;20354;-56
2021/12/04 11:49:38;;;;;;;7.63;6.93;;;7.20;94.40;;;;;;5113720;28;20320;-57
2021/12/04 11:52:14;;;;;;;8.25;6.95;;;7.10;94.50;;;;;;5113235;28;20732;-54
2021/12/04 11:54:47;;;;;;;6.60;6.00;;;7.10;94.50;;;;;;5113207;28;20706;-55
2021/12/04 11:57:17;;;;;;;6.25;5.57;;;7.10;94.40;;;;;;5113621;28;20180;-55
2021/12/04 11:59:48;;;;;;;7.03;6.43;;;7.10;94.40;;;;;;5113507;28;20203;-56
2021/12/04 12:02:21;;;;;;;6.53;5.80;;;7.10;94.30;;;;;;5113204;28;20184;-56
2021/12/04 12:04:52;;;;;;;6.20;5.68;;;7.10;94.40;;;;;;5113391;28;20219;-58
2021/12/04 12:07:22;;;;;;;5.97;5.38;;;7.20;94.50;;;;;;5113478;28;20304;-56
2021/12/04 12:10:08;;;;;;;5.90;5.40;;;7.20;94.30;;;;;;5113355;28;20695;-56
2021/12/04 12:12:38;;;;;;;6.05;5.55;;;7.20;94.20;;;;;;5113339;28;20552;-59
2021/12/04 12:15:18;;;;;;;6.47;5.88;;;7.30;94.10;;;;;;5113228;28;20187;-57
2021/12/04 12:17:45;;;;;;;6.97;6.38;;;7.30;94.00;;;;;;5113430;28;20191;-58
2021/12/04 12:20:21;;;;;;;6.15;5.07;;;7.30;93.90;;;;;;5113950;28;20199;-56
2021/12/04 12:22:51;;;;;;;8.02;5.15;;;7.30;93.90;;;;;;5113538;28;20184;-55
2021/12/04 12:25:26;;;;;;;5.53;5.03;;;7.30;93.90;;;;;;5113653;28;20211;-60
2021/12/04 12:31:43;;;;;;;4.63;4.22;;;7.30;93.80;;;;;;5113479;28;20284;-58
2021/12/04 12:33:38;;;;;;;5.68;4.22;;;7.30;93.60;;;;;;5118119;28;20697;-59
2021/12/04 12:36:09;;;;;;;4.60;4.30;;;7.20;93.60;;;;;;5117762;28;20271;-58
2021/12/04 12:38:50;;;;;;;4.50;3.95;;;7.20;93.60;;;;;;5117442;28;20249;-56
2021/12/04 12:41:30;;;;;;;4.18;3.88;;;7.20;93.50;;;;;;5117083;28;20184;-58
2021/12/04 12:44:12;;;;;;;3.80;3.50;;;7.20;93.40;;;;;;5117076;28;20334;-58
2021/12/04 12:46:43;;;;;;;4.10;3.70;;;7.10;93.30;;;;;;5116730;28;20286;-58
2021/12/04 12:49:25;;;;;;;5.45;3.70;;;7.10;93.40;;;;;;5118104;28;20247;-58
2021/12/04 12:51:59;;;;;;;3.97;3.50;;;7.10;93.40;;;;;;5117350;28;20288;-57
2021/12/04 12:54:29;;;;;;;4.88;4.30;;;7.00;93.30;;;;;;5117026;28;20231;-55
2021/12/04 12:57:08;;;;;;;3.30;3.00;;;7.00;93.40;;;;;;5117285;28;20195;-57
2021/12/04 12:59:45;;;;;;;3.97;3.45;;;7.00;93.40;;;;;;5118414;28;20580;-57
2021/12/04 13:13:32;;;;;;;3.90;3.47;;;6.80;93.60;;;;;;5116741;28;20325;-58
2021/12/04 13:16:05;;;;;;;3.88;3.30;;;6.80;93.60;;;;;;5117495;28;20194;-56
2021/12/04 13:18:32;;;;;;;3.65;3.17;;;6.80;93.30;;;;;;5116387;28;20190;-56
2021/12/04 13:21:03;;;;;;;3.88;3.58;;;6.70;93.30;;;;;;5116881;28;20674;-56
2021/12/04 13:23:30;;;;;;;6.35;3.55;;;6.60;93.70;;;;;;5116153;28;20592;-56
2021/12/04 13:26:02;;;;;;;3.67;3.15;;;6.70;93.90;;;;;;5116151;28;20660;-57
2021/12/04 13:28:33;;;;;;;3.88;3.58;;;6.60;93.80;;;;;;5116722;28;20185;-58
2021/12/04 13:31:01;;;;;;;4.50;4.03;;;6.70;94.00;;;;;;5116340;28;20710;-58
2021/12/04 13:33:29;;;;;;;4.03;3.42;;;6.70;93.90;;;;;;5116446;28;20251;-58
2021/12/04 13:35:56;;;;;;;5.95;4.18;;;6.70;93.80;;;;;;5116242;28;20213;-57
2021/12/04 13:38:26;;;;;;;5.28;4.70;;;6.60;93.80;;;;;;5115909;28;20671;-57
2021/12/04 13:40:54;;;;;;;5.35;4.65;;;6.50;93.80;;;;;;5115865;28;20200;-56
2021/12/04 13:43:22;;;;;;;4.10;3.80;;;6.50;93.90;;;;;;5117199;28;20315;-59
2021/12/04 13:45:58;;;;;;;4.50;4.05;;;6.50;94.00;;;;;;5116362;28;20206;-57
2021/12/04 13:48:26;;;;;;;5.40;3.53;;;6.40;94.00;;;;;;5117107;28;20183;-57
2021/12/04 13:50:55;;;;;;;4.25;3.70;;;6.30;94.10;;;;;;5116034;28;20270;-57
2021/12/04 13:53:26;;;;;;;4.47;3.95;;;6.30;94.00;;;;;;5115853;28;20230;-56
2021/12/04 13:55:56;;;;;;;3.35;2.88;;;6.10;94.00;;;;;;5115842;28;20223;-58
2021/12/04 13:58:23;;;;;;;4.82;3.63;;;6.00;94.10;;;;;;5115705;28;20206;-59
2021/12/04 14:00:50;;;;;;;4.03;3.60;;;5.90;94.40;;;;;;5115903;28;20203;-56
2021/12/04 14:03:23;;;;;;;4.28;3.65;;;5.90;94.60;;;;;;5115375;28;20232;-58
2021/12/04 14:05:50;;;;;;;5.72;3.58;;;5.90;94.70;;;;;;5116106;28;20191;-59
2021/12/04 14:08:17;;;;;;;3.90;3.50;;;5.80;94.80;;;;;;5115491;28;20207;-57
2021/12/04 14:10:46;;;;;;;3.80;3.50;;;5.90;95.00;;;;;;5115653;28;20223;-58
2021/12/04 14:13:15;;;;;;;3.35;3.05;;;5.90;95.10;;;;;;5115826;28;20220;-58
2021/12/04 14:15:45;;;;;;;5.07;3.90;;;5.90;95.10;;;;;;5115505;28;20667;-58
2021/12/04 14:18:14;;;;;;;3.70;3.40;;;6.00;95.10;;;;;;5115584;28;20203;-57
2021/12/04 14:20:46;;;;;;;3.85;3.47;;;6.00;95.20;;;;;;5115129;28;20210;-58
2021/12/04 14:23:13;;;;;;;4.35;3.95;;;6.00;95.10;;;;;;5115811;28;20231;-58
2021/12/04 14:25:51;;;;;;;4.05;3.75;;;6.00;95.10;;;;;;5116070;28;20192;-58
2021/12/04 14:28:19;;;;;;;4.80;4.40;;;6.00;95.20;;;;;;5115295;28;20619;-57
2021/12/04 14:30:48;;;;;;;6.10;3.88;;;6.10;95.30;;;;;;5114707;28;20228;-59
2021/12/04 14:33:19;;;;;;;8.40;5.15;;;6.10;95.30;;;;;;5114871;28;20223;-58
2021/12/04 14:35:51;;;;;;;5.25;4.75;;;6.10;95.30;;;;;;5114586;28;20226;-58
2021/12/04 14:38:21;;;;;;;4.43;4.00;;;6.10;95.30;;;;;;5114875;28;20199;-59
2021/12/04 14:40:51;;;;;;;5.90;4.82;;;6.20;95.30;;;;;;5114533;28;20679;-59
2021/12/04 14:43:20;;;;;;;5.40;4.90;;;6.10;95.20;;;;;;5114305;28;20714;-57
2021/12/04 14:45:51;;;;;;;4.95;4.10;;;6.10;95.40;;;;;;5114463;28;20253;-59
2021/12/04 14:48:21;;;;;;;4.78;3.50;;;6.10;95.40;;;;;;5114166;28;20184;-58
2021/12/04 14:50:56;;;;;;;5.78;4.97;;;6.10;95.30;;;;;;5114809;28;20204;-56
2021/12/04 14:53:23;;;;;;;4.40;4.00;;;6.00;95.40;;;;;;5113757;28;20219;-56
2021/12/04 14:55:52;;;;;;;5.88;4.60;;;6.00;95.60;;;;;;5114158;28;20207;-55
2021/12/04 14:58:22;;;;;;;8.13;5.00;;;6.00;95.60;;;;;;5114762;28;20207;-57
2021/12/04 15:00:51;;;;;;;5.00;4.50;;;6.00;95.80;;;;;;5114722;28;20196;-57
2021/12/04 15:03:21;;;;;;;7.10;4.97;;;6.00;95.80;;;;;;5114616;28;20228;-57
2021/12/04 15:05:57;;;;;;;5.22;4.80;;;5.90;95.90;;;;;;5114441;28;20200;-56
2021/12/04 15:08:27;;;;;;;4.82;4.43;;;6.00;96.00;;;;;;5114551;28;20183;-57
2021/12/04 15:11:00;;;;;;;7.57;4.03;;;6.00;96.00;;;;;;5113796;28;20270;-58
2021/12/04 15:13:32;;;;;;;6.55;5.05;;;6.00;96.10;;;;;;5114184;28;20622;-58
2021/12/04 15:16:03;;;;;;;5.25;4.53;;;6.00;96.20;;;;;;5114131;28;20179;-58
2021/12/04 15:18:35;;;;;;;6.32;5.72;;;6.00;96.20;;;;;;5114156;28;20191;-57
2021/12/04 15:21:07;;;;;;;5.93;5.35;;;5.90;96.10;;;;;;5114159;28;20199;-57
2021/12/04 15:23:36;;;;;;;6.07;5.45;;;5.90;96.30;;;;;;5113595;28;20250;-57
2021/12/04 15:26:10;;;;;;;5.60;5.10;;;5.90;96.30;;;;;;5113905;28;20257;-58
2021/12/04 15:28:45;;;;;;;6.93;5.28;;;5.90;96.30;;;;;;5113859;28;20283;-57
2021/12/04 15:31:12;;;;;;;6.10;5.30;;;5.90;96.40;;;;;;5113800;28;20709;-58
2021/12/04 15:33:42;;;;;;;6.10;5.50;;;5.80;96.40;;;;;;5113826;28;20711;-58
2021/12/04 15:36:21;;;;;;;5.85;4.88;;;5.80;96.50;;;;;;5114065;28;20181;-57
2021/12/04 15:38:51;;;;;;;6.63;4.88;;;5.80;96.60;;;;;;5113948;28;20557;-57
2021/12/04 15:41:35;;;;;;;5.18;4.78;;;5.80;96.70;;;;;;5114523;28;20191;-58
2021/12/04 15:44:09;;;;;;;5.68;4.53;;;5.80;96.70;;;;;;5113207;28;20245;-56
2021/12/04 15:46:46;;;;;;;9.15;5.10;;;5.80;96.80;;;;;;5113288;28;20240;-56
2021/12/04 15:49:32;;;;;;;5.63;5.13;;;5.80;96.80;;;;;;5113287;28;20616;-56
2021/12/04 15:55:02;;;;;;;5.82;5.32;;;5.80;96.90;;;;;;5114617;28;20215;-57
2021/12/04 15:57:30;;;;;;;6.72;6.07;;;5.80;96.90;;;;;;5115075;28;20252;-57
2021/12/04 15:59:58;;;;;;;5.60;5.10;;;5.80;97.00;;;;;;5114567;28;20207;-57
2021/12/04 16:02:31;;;;;;;7.53;5.47;;;5.80;97.00;;;;;;5113829;28;20199;-57
2021/12/04 16:05:10;;;;;;;7.32;5.82;;;5.80;97.00;;;;;;5113680;28;20658;-57
2021/12/04 16:07:39;;;;;;;8.52;6.20;;;5.80;97.00;;;;;;5114006;28;20236;-57
2021/12/04 16:10:14;;;;;;;6.00;5.40;;;5.80;97.00;;;;;;5113973;28;20689;-57
2021/12/04 16:12:42;;;;;;;6.90;6.20;;;5.80;97.00;;;;;;5114056;28;20192;-55
2021/12/04 16:15:10;;;;;;;6.00;5.40;;;5.80;97.00;;;;;;5113777;28;20207;-57
2021/12/04 16:17:38;;;;;;;6.55;5.20;;;5.80;97.00;;;;;;5114341;28;20195;-57
2021/12/04 16:20:10;;;;;;;7.60;6.30;;;5.70;96.90;;;;;;5114098;28;20226;-57
2021/12/04 16:22:40;;;;;;;7.45;6.15;;;5.70;97.00;;;;;;5113405;28;20183;-58
2021/12/04 16:25:11;;;;;;;10.38;5.97;;;5.70;97.10;;;;;;5116448;28;20207;-57
2021/12/04 16:27:49;;;;;;;6.65;6.00;;;5.70;97.20;;;;;;5115303;28;20604;-57
2021/12/04 16:30:37;;;;;;;7.57;5.90;;;5.60;97.10;;;;;;5113968;28;20260;-57
2021/12/04 16:33:12;;;;;;;5.70;5.10;;;5.60;97.20;;;;;;5126715;22;20236;-58